sensor_id;sensor_type;location;lat;lon;timestamp;pressure;altitude;pressure_sealevel;temperature;humidity
5753;BME280;2901;42.140;24.760;2022-12-26T00:00:51;100428.13;;;7.35;96.91
5753;BME280;2901;42.140;24.760;2022-12-26T00:03:17;100436.81;;;7.40;96.63
5753;BME280;2901;42.140;24.760;2022-12-26T00:05:42;100442.72;;;7.34;96.33
5753;BME280;2901;42.140;24.760;2022-12-26T00:08:08;100455.63;;;7.36;96.03
5753;BME280;2901;42.140;24.760;2022-12-26T00:10:33;100439.97;;;7.26;96.63
5753;BME280;2901;42.140;24.760;2022-12-26T00:12:58;100458.06;;;7.29;96.99
5753;BME280;2901;42.140;24.760;2022-12-26T00:15:24;100453.63;;;7.22;97.79
5753;BME280;2901;42.140;24.760;2022-12-26T00:17:49;100456.00;;;7.13;97.92
5753;BME280;2901;42.140;24.760;2022-12-26T00:20:15;100461.03;;;7.09;98.28
5753;BME280;2901;42.140;24.760;2022-12-26T00:22:40;100445.75;;;6.79;98.93
5753;BME280;2901;42.140;24.760;2022-12-26T00:25:06;100469.03;;;6.85;99.02
5753;BME280;2901;42.140;24.760;2022-12-26T00:27:31;100469.97;;;6.87;99.57
5753;BME280;2901;42.140;24.760;2022-12-26T00:29:57;100467.41;;;6.87;99.19
5753;BME280;2901;42.140;24.760;2022-12-26T00:32:22;100478.72;;;6.95;99.27
5753;BME280;2901;42.140;24.760;2022-12-26T00:34:47;100483.94;;;6.98;99.68
5753;BME280;2901;42.140;24.760;2022-12-26T00:37:13;100483.94;;;6.98;99.63
5753;BME280;2901;42.140;24.760;2022-12-26T00:39:38;100491.69;;;6.98;98.96
5753;BME280;2901;42.140;24.760;2022-12-26T00:42:03;100488.25;;;6.98;99.04
5753;BME280;2901;42.140;24.760;2022-12-26T00:44:29;100478.44;;;6.83;99.62
5753;BME280;2901;42.140;24.760;2022-12-26T00:46:54;100485.38;;;6.86;100.00
5753;BME280;2901;42.140;24.760;2022-12-26T00:49:20;100490.63;;;6.90;99.88
5753;BME280;2901;42.140;24.760;2022-12-26T00:51:45;100488.75;;;6.83;99.78
5753;BME280;2901;42.140;24.760;2022-12-26T00:54:10;100493.63;;;6.72;99.98
5753;BME280;2901;42.140;24.760;2022-12-26T00:56:36;100487.50;;;6.67;100.00
5753;BME280;2901;42.140;24.760;2022-12-26T00:59:01;100491.47;;;6.55;100.00
5753;BME280;2901;42.140;24.760;2022-12-26T01:01:27;100481.81;;;6.46;100.00
5753;BME280;2901;42.140;24.760;2022-12-26T01:03:56;100478.44;;;6.49;100.00
5753;BME280;2901;42.140;24.760;2022-12-26T01:06:21;100474.28;;;6.54;100.00
5753;BME280;2901;42.140;24.760;2022-12-26T01:08:47;100480.19;;;6.50;100.00
5753;BME280;2901;42.140;24.760;2022-12-26T01:11:14;100486.13;;;6.47;100.00
5753;BME280;2901;42.140;24.760;2022-12-26T01:14:01;100483.56;;;6.47;100.00
5753;BME280;2901;42.140;24.760;2022-12-26T01:16:26;100482.69;;;6.47;100.00
5753;BME280;2901;42.140;24.760;2022-12-26T01:18:51;100488.66;;;6.46;100.00
5753;BME280;2901;42.140;24.760;2022-12-26T01:21:17;100488.47;;;6.38;100.00
5753;BME280;2901;42.140;24.760;2022-12-26T01:23:42;100489.97;;;6.30;100.00
5753;BME280;2901;42.140;24.760;2022-12-26T01:26:07;100505.38;;;6.30;100.00
5753;BME280;2901;42.140;24.760;2022-12-26T01:28:33;100501.94;;;6.30;100.00
5753;BME280;2901;42.140;24.760;2022-12-26T01:31:02;100513.09;;;6.29;100.00
5753;BME280;2901;42.140;24.760;2022-12-26T01:33:28;100510.66;;;6.35;100.00
5753;BME280;2901;42.140;24.760;2022-12-26T01:35:54;100509.88;;;6.37;100.00
5753;BME280;2901;42.140;24.760;2022-12-26T01:38:20;100507.28;;;6.37;100.00
5753;BME280;2901;42.140;24.760;2022-12-26T01:40:47;100500.47;;;6.38;100.00
5753;BME280;2901;42.140;24.760;2022-12-26T01:43:14;100498.72;;;6.37;100.00
5753;BME280;2901;42.140;24.760;2022-12-26T01:45:41;100502.94;;;6.35;100.00
5753;BME280;2901;42.140;24.760;2022-12-26T01:48:19;100505.38;;;6.29;100.00
5753;BME280;2901;42.140;24.760;2022-12-26T01:53:24;100512.78;;;6.18;100.00
5753;BME280;2901;42.140;24.760;2022-12-26T01:55:57;100519.63;;;6.17;100.00
5753;BME280;2901;42.140;24.760;2022-12-26T01:58:29;100525.56;;;6.15;100.00
5753;BME280;2901;42.140;24.760;2022-12-26T02:00:56;100520.34;;;6.12;100.00
5753;BME280;2901;42.140;24.760;2022-12-26T02:03:22;100516.91;;;6.13;100.00
5753;BME280;2901;42.140;24.760;2022-12-26T02:06:07;100521.81;;;6.04;100.00
5753;BME280;2901;42.140;24.760;2022-12-26T02:08:34;100516.66;;;6.04;100.00
5753;BME280;2901;42.140;24.760;2022-12-26T02:11:16;100520.91;;;6.02;100.00
5753;BME280;2901;42.140;24.760;2022-12-26T02:13:43;100511.41;;;5.99;100.00
5753;BME280;2901;42.140;24.760;2022-12-26T02:16:12;100529.41;;;5.99;100.00
5753;BME280;2901;42.140;24.760;2022-12-26T02:18:38;100526.94;;;6.02;100.00
5753;BME280;2901;42.140;24.760;2022-12-26T02:32:10;100520.75;;;5.97;100.00
5753;BME280;2901;42.140;24.760;2022-12-26T02:34:54;100519.88;;;5.97;100.00
5753;BME280;2901;42.140;24.760;2022-12-26T02:49:14;100520.75;;;5.97;100.00
5753;BME280;2901;42.140;24.760;2022-12-26T02:54:53;100533.69;;;6.00;100.00
5753;BME280;2901;42.140;24.760;2022-12-26T02:57:50;100526.72;;;5.96;100.00
5753;BME280;2901;42.140;24.760;2022-12-26T03:00:40;100521.69;;;5.99;100.00
5753;BME280;2901;42.140;24.760;2022-12-26T03:03:30;100515.78;;;6.02;100.00
5753;BME280;2901;42.140;24.760;2022-12-26T03:06:20;100507.09;;;5.98;100.00
5753;BME280;2901;42.140;24.760;2022-12-26T03:12:02;100507.09;;;5.98;100.00
5753;BME280;2901;42.140;24.760;2022-12-26T03:14:53;100507.03;;;5.97;100.00
5753;BME280;2901;42.140;24.760;2022-12-26T03:20:05;100501.91;;;5.97;100.00
5753;BME280;2901;42.140;24.760;2022-12-26T03:25:13;100506.84;;;5.89;100.00
5753;BME280;2901;42.140;24.760;2022-12-26T03:27:58;100508.56;;;5.90;100.00
5753;BME280;2901;42.140;24.760;2022-12-26T03:30:24;100493.81;;;5.85;100.00
5753;BME280;2901;42.140;24.760;2022-12-26T03:33:08;100507.69;;;5.90;100.00
5753;BME280;2901;42.140;24.760;2022-12-26T03:35:53;100493.72;;;5.82;100.00
5753;BME280;2901;42.140;24.760;2022-12-26T03:38:23;100498.88;;;5.82;100.00
5753;BME280;2901;42.140;24.760;2022-12-26T03:46:58;100513.97;;;5.71;100.00
5753;BME280;2901;42.140;24.760;2022-12-26T03:49:53;100517.81;;;5.57;100.00
5753;BME280;2901;42.140;24.760;2022-12-26T03:53:01;100511.53;;;5.47;100.00
5753;BME280;2901;42.140;24.760;2022-12-26T03:55:58;100519.34;;;5.50;100.00
5753;BME280;2901;42.140;24.760;2022-12-26T03:58:57;100526.22;;;5.50;100.00
5753;BME280;2901;42.140;24.760;2022-12-26T04:01:44;100520.75;;;5.41;100.00
5753;BME280;2901;42.140;24.760;2022-12-26T04:04:32;100530.84;;;5.35;100.00
5753;BME280;2901;42.140;24.760;2022-12-26T04:07:27;100528.16;;;5.30;100.00
5753;BME280;2901;42.140;24.760;2022-12-26T04:10:24;100527.72;;;5.16;100.00
5753;BME280;2901;42.140;24.760;2022-12-26T04:13:35;100529.97;;;5.07;100.00
5753;BME280;2901;42.140;24.760;2022-12-26T04:16:33;100542.94;;;4.85;100.00
5753;BME280;2901;42.140;24.760;2022-12-26T04:26:07;100533.56;;;4.60;100.00
5753;BME280;2901;42.140;24.760;2022-12-26T04:28:55;100539.41;;;4.56;100.00
5753;BME280;2901;42.140;24.760;2022-12-26T04:34:39;100538.63;;;4.34;100.00
5753;BME280;2901;42.140;24.760;2022-12-26T04:37:25;100550.38;;;4.27;100.00
5753;BME280;2901;42.140;24.760;2022-12-26T04:40:16;100551.34;;;4.31;100.00
5753;BME280;2901;42.140;24.760;2022-12-26T04:43:03;100554.72;;;4.30;100.00
5753;BME280;2901;42.140;24.760;2022-12-26T04:45:48;100554.44;;;4.22;100.00
5753;BME280;2901;42.140;24.760;2022-12-26T04:48:14;100556.88;;;4.19;100.00
5753;BME280;2901;42.140;24.760;2022-12-26T04:50:58;100563.97;;;4.26;100.00
5753;BME280;2901;42.140;24.760;2022-12-26T04:53:23;100562.19;;;4.24;100.00
5753;BME280;2901;42.140;24.760;2022-12-26T04:55:49;100560.44;;;4.23;100.00
5753;BME280;2901;42.140;24.760;2022-12-26T04:58:14;100569.78;;;4.21;100.00
5753;BME280;2901;42.140;24.760;2022-12-26T05:00:40;100561.31;;;4.23;100.00
5753;BME280;2901;42.140;24.760;2022-12-26T05:03:05;100569.06;;;4.25;100.00
5753;BME280;2901;42.140;24.760;2022-12-26T05:05:50;100567.59;;;4.31;100.00
5753;BME280;2901;42.140;24.760;2022-12-26T05:08:38;100567.34;;;4.25;100.00
5753;BME280;2901;42.140;24.760;2022-12-26T05:11:23;100579.16;;;4.20;100.00
5753;BME280;2901;42.140;24.760;2022-12-26T05:13:54;100584.28;;;4.20;100.00
5753;BME280;2901;42.140;24.760;2022-12-26T05:16:20;100579.81;;;4.14;100.00
5753;BME280;2901;42.140;24.760;2022-12-26T05:19:04;100584.09;;;4.15;100.00
5753;BME280;2901;42.140;24.760;2022-12-26T05:21:49;100582.53;;;4.19;100.00
5753;BME280;2901;42.140;24.760;2022-12-26T05:24:38;100588.63;;;4.23;100.00
5753;BME280;2901;42.140;24.760;2022-12-26T05:27:23;100598.56;;;4.13;100.00
5753;BME280;2901;42.140;24.760;2022-12-26T05:30:08;100601.34;;;4.19;100.00
5753;BME280;2901;42.140;24.760;2022-12-26T05:32:34;100601.31;;;4.18;100.00
5753;BME280;2901;42.140;24.760;2022-12-26T05:35:18;100598.78;;;4.19;100.00
5753;BME280;2901;42.140;24.760;2022-12-26T05:37:44;100600.56;;;4.22;100.00
5753;BME280;2901;42.140;24.760;2022-12-26T05:40:09;100593.75;;;4.23;100.00
5753;BME280;2901;42.140;24.760;2022-12-26T05:42:35;100599.88;;;4.26;100.00
5753;BME280;2901;42.140;24.760;2022-12-26T05:45:00;100595.63;;;4.27;100.00
5753;BME280;2901;42.140;24.760;2022-12-26T05:47:26;100600.25;;;4.37;100.00
5753;BME280;2901;42.140;24.760;2022-12-26T05:49:51;100593.66;;;4.43;100.00
5753;BME280;2901;42.140;24.760;2022-12-26T05:52:17;100595.72;;;4.30;100.00
5753;BME280;2901;42.140;24.760;2022-12-26T05:54:42;100598.22;;;4.28;100.00
5753;BME280;2901;42.140;24.760;2022-12-26T05:57:07;100601.78;;;4.32;100.00
5753;BME280;2901;42.140;24.760;2022-12-26T05:59:33;100603.75;;;4.39;100.00
5753;BME280;2901;42.140;24.760;2022-12-26T06:01:58;100597.91;;;4.43;100.00
5753;BME280;2901;42.140;24.760;2022-12-26T06:04:23;100603.25;;;4.49;100.00
5753;BME280;2901;42.140;24.760;2022-12-26T06:06:49;100612.91;;;4.56;100.00
5753;BME280;2901;42.140;24.760;2022-12-26T06:09:14;100606.22;;;4.59;100.00
5753;BME280;2901;42.140;24.760;2022-12-26T06:11:39;100605.44;;;4.62;100.00
5753;BME280;2901;42.140;24.760;2022-12-26T06:14:05;100602.06;;;4.63;100.00
5753;BME280;2901;42.140;24.760;2022-12-26T06:16:30;100609.03;;;4.67;100.00
5753;BME280;2901;42.140;24.760;2022-12-26T06:18:56;100602.16;;;4.66;100.00
5753;BME280;2901;42.140;24.760;2022-12-26T06:21:21;100607.41;;;4.69;100.00
5753;BME280;2901;42.140;24.760;2022-12-26T06:23:48;100605.75;;;4.71;100.00
5753;BME280;2901;42.140;24.760;2022-12-26T06:26:14;100617.00;;;4.75;100.00
5753;BME280;2901;42.140;24.760;2022-12-26T06:28:41;100609.34;;;4.76;100.00
5753;BME280;2901;42.140;24.760;2022-12-26T06:31:16;100612.84;;;4.78;100.00
5753;BME280;2901;42.140;24.760;2022-12-26T06:33:44;100624.38;;;4.91;100.00
5753;BME280;2901;42.140;24.760;2022-12-26T06:36:12;100609.13;;;4.94;100.00
5753;BME280;2901;42.140;24.760;2022-12-26T06:38:39;100623.94;;;5.02;100.00
5753;BME280;2901;42.140;24.760;2022-12-26T06:41:06;100623.16;;;5.05;100.00
5753;BME280;2901;42.140;24.760;2022-12-26T06:43:31;100635.22;;;5.07;100.00
5753;BME280;2901;42.140;24.760;2022-12-26T06:45:58;100634.50;;;5.11;100.00
5753;BME280;2901;42.140;24.760;2022-12-26T06:48:24;100629.28;;;5.08;100.00
5753;BME280;2901;42.140;24.760;2022-12-26T06:50:49;100634.41;;;5.08;100.00
5753;BME280;2901;42.140;24.760;2022-12-26T06:53:15;100638.84;;;5.12;100.00
5753;BME280;2901;42.140;24.760;2022-12-26T06:55:40;100641.59;;;5.18;100.00
5753;BME280;2901;42.140;24.760;2022-12-26T06:58:06;100640.22;;;5.28;100.00
5753;BME280;2901;42.140;24.760;2022-12-26T07:00:31;100630.28;;;5.39;100.00
5753;BME280;2901;42.140;24.760;2022-12-26T07:02:56;100627.97;;;5.46;100.00
5753;BME280;2901;42.140;24.760;2022-12-26T07:05:22;100630.13;;;5.59;100.00
5753;BME280;2901;42.140;24.760;2022-12-26T07:07:51;100633.84;;;5.69;100.00
5753;BME280;2901;42.140;24.760;2022-12-26T07:10:18;100634.84;;;5.74;100.00
5753;BME280;2901;42.140;24.760;2022-12-26T07:12:44;100638.63;;;5.85;100.00
5753;BME280;2901;42.140;24.760;2022-12-26T07:15:09;100643.25;;;5.95;100.00
5753;BME280;2901;42.140;24.760;2022-12-26T07:17:36;100638.44;;;6.06;100.00
5753;BME280;2901;42.140;24.760;2022-12-26T07:20:02;100637.91;;;6.17;100.00
5753;BME280;2901;42.140;24.760;2022-12-26T07:22:28;100647.56;;;6.24;100.00
5753;BME280;2901;42.140;24.760;2022-12-26T07:24:53;100653.97;;;6.39;100.00
5753;BME280;2901;42.140;24.760;2022-12-26T07:27:19;100657.78;;;6.51;100.00
5753;BME280;2901;42.140;24.760;2022-12-26T07:29:45;100663.81;;;6.53;100.00
5753;BME280;2901;42.140;24.760;2022-12-26T07:32:11;100651.97;;;6.58;100.00
5753;BME280;2901;42.140;24.760;2022-12-26T07:34:36;100660.69;;;6.63;100.00
5753;BME280;2901;42.140;24.760;2022-12-26T07:37:01;100657.59;;;6.75;100.00
5753;BME280;2901;42.140;24.760;2022-12-26T07:39:27;100658.94;;;6.94;100.00
5753;BME280;2901;42.140;24.760;2022-12-26T07:41:52;100655.81;;;7.05;100.00
5753;BME280;2901;42.140;24.760;2022-12-26T07:44:28;100649.47;;;7.25;100.00
5753;BME280;2901;42.140;24.760;2022-12-26T07:46:55;100661.97;;;7.45;98.47
5753;BME280;2901;42.140;24.760;2022-12-26T07:49:22;100663.94;;;7.55;96.77
5753;BME280;2901;42.140;24.760;2022-12-26T07:51:48;100671.13;;;7.68;96.53
5753;BME280;2901;42.140;24.760;2022-12-26T07:54:14;100674.09;;;7.83;96.21
5753;BME280;2901;42.140;24.760;2022-12-26T07:56:40;100675.28;;;7.99;95.57
5753;BME280;2901;42.140;24.760;2022-12-26T07:59:08;100670.50;;;8.15;94.96
5753;BME280;2901;42.140;24.760;2022-12-26T08:01:36;100669.22;;;8.32;93.76
5753;BME280;2901;42.140;24.760;2022-12-26T08:04:01;100673.94;;;8.53;93.21
5753;BME280;2901;42.140;24.760;2022-12-26T08:06:26;100669.81;;;8.61;93.04
5753;BME280;2901;42.140;24.760;2022-12-26T08:08:52;100682.22;;;8.79;91.40
5753;BME280;2901;42.140;24.760;2022-12-26T08:11:20;100677.16;;;8.85;91.16
5753;BME280;2901;42.140;24.760;2022-12-26T08:13:46;100658.31;;;8.91;90.54
5753;BME280;2901;42.140;24.760;2022-12-26T08:16:13;100660.13;;;8.96;89.79
5753;BME280;2901;42.140;24.760;2022-12-26T08:18:39;100670.63;;;9.02;90.24
5753;BME280;2901;42.140;24.760;2022-12-26T08:21:04;100673.97;;;8.98;88.84
5753;BME280;2901;42.140;24.760;2022-12-26T08:23:29;100684.44;;;9.06;89.16
5753;BME280;2901;42.140;24.760;2022-12-26T08:25:55;100672.16;;;8.94;89.31
5753;BME280;2901;42.140;24.760;2022-12-26T08:28:20;100673.00;;;8.93;89.18
5753;BME280;2901;42.140;24.760;2022-12-26T08:30:46;100672.06;;;8.90;89.37
5753;BME280;2901;42.140;24.760;2022-12-26T08:33:12;100665.53;;;8.63;89.75
5753;BME280;2901;42.140;24.760;2022-12-26T08:35:38;100664.00;;;8.73;89.90
5753;BME280;2901;42.140;24.760;2022-12-26T08:38:04;100662.28;;;8.73;89.78
5753;BME280;2901;42.140;24.760;2022-12-26T08:40:30;100659.88;;;8.81;89.41
5753;BME280;2901;42.140;24.760;2022-12-26T08:42:56;100658.47;;;8.98;89.32
5753;BME280;2901;42.140;24.760;2022-12-26T08:45:22;100652.53;;;9.04;88.61
5753;BME280;2901;42.140;24.760;2022-12-26T08:47:48;100649.28;;;9.14;88.65
5753;BME280;2901;42.140;24.760;2022-12-26T08:50:14;100649.72;;;9.38;88.40
5753;BME280;2901;42.140;24.760;2022-12-26T08:52:40;100641.25;;;9.48;87.02
5753;BME280;2901;42.140;24.760;2022-12-26T08:55:06;100642.31;;;9.61;86.46
5753;BME280;2901;42.140;24.760;2022-12-26T08:57:32;100645.25;;;9.83;86.24
5753;BME280;2901;42.140;24.760;2022-12-26T08:59:57;100636.03;;;10.02;84.47
5753;BME280;2901;42.140;24.760;2022-12-26T09:02:22;100630.31;;;10.23;84.50
5753;BME280;2901;42.140;24.760;2022-12-26T09:04:48;100634.03;;;10.43;83.95
5753;BME280;2901;42.140;24.760;2022-12-26T09:07:13;100627.34;;;10.62;82.55
5753;BME280;2901;42.140;24.760;2022-12-26T09:09:38;100629.03;;;10.57;80.99
5753;BME280;2901;42.140;24.760;2022-12-26T09:12:04;100631.56;;;10.54;80.99
5753;BME280;2901;42.140;24.760;2022-12-26T09:14:30;100629.78;;;10.51;81.34
5753;BME280;2901;42.140;24.760;2022-12-26T09:16:55;100619.34;;;10.40;81.73
5753;BME280;2901;42.140;24.760;2022-12-26T09:19:21;100609.03;;;10.48;82.47
5753;BME280;2901;42.140;24.760;2022-12-26T09:21:48;100601.53;;;10.71;81.75
5753;BME280;2901;42.140;24.760;2022-12-26T09:24:16;100598.28;;;10.88;80.54
5753;BME280;2901;42.140;24.760;2022-12-26T09:26:42;100593.97;;;10.89;80.50
5753;BME280;2901;42.140;24.760;2022-12-26T09:29:11;100587.09;;;10.97;80.26
5753;BME280;2901;42.140;24.760;2022-12-26T09:31:37;100580.22;;;10.96;79.03
5753;BME280;2901;42.140;24.760;2022-12-26T09:34:04;100570.63;;;10.89;78.35
5753;BME280;2901;42.140;24.760;2022-12-26T09:36:33;100587.25;;;11.09;78.39
5753;BME280;2901;42.140;24.760;2022-12-26T09:38:59;100582.81;;;10.99;78.15
5753;BME280;2901;42.140;24.760;2022-12-26T09:42:01;100573.41;;;11.10;78.72
5753;BME280;2901;42.140;24.760;2022-12-26T09:47:15;100570.19;;;11.43;76.23
5753;BME280;2901;42.140;24.760;2022-12-26T09:49:53;100575.47;;;11.54;75.93
5753;BME280;2901;42.140;24.760;2022-12-26T09:52:37;100567.72;;;11.57;74.87
5753;BME280;2901;42.140;24.760;2022-12-26T09:58:22;100565.91;;;11.45;75.15
5753;BME280;2901;42.140;24.760;2022-12-26T10:01:17;100567.66;;;11.48;74.25
5753;BME280;2901;42.140;24.760;2022-12-26T10:04:08;100566.78;;;11.45;75.35
5753;BME280;2901;42.140;24.760;2022-12-26T10:09:42;100556.63;;;11.79;76.12
5753;BME280;2901;42.140;24.760;2022-12-26T10:14:56;100554.19;;;12.05;74.94
5753;BME280;2901;42.140;24.760;2022-12-26T10:17:43;100545.66;;;12.39;74.22
5753;BME280;2901;42.140;24.760;2022-12-26T10:20:16;100542.22;;;12.46;72.53
5753;BME280;2901;42.140;24.760;2022-12-26T10:25:51;100533.47;;;12.18;73.02
5753;BME280;2901;42.140;24.760;2022-12-26T10:37:21;100522.28;;;12.37;72.65
5753;BME280;2901;42.140;24.760;2022-12-26T10:42:30;100522.31;;;12.56;70.73
5753;BME280;2901;42.140;24.760;2022-12-26T10:44:58;100509.34;;;12.83;70.53
5753;BME280;2901;42.140;24.760;2022-12-26T10:50:28;100510.22;;;13.06;67.81
5753;BME280;2901;42.140;24.760;2022-12-26T10:52:56;100498.09;;;13.02;67.99
5753;BME280;2901;42.140;24.760;2022-12-26T10:55:32;100494.63;;;13.32;67.24
5753;BME280;2901;42.140;24.760;2022-12-26T11:00:43;100485.94;;;13.43;66.73
5753;BME280;2901;42.140;24.760;2022-12-26T11:03:14;100482.44;;;13.44;66.53
5753;BME280;2901;42.140;24.760;2022-12-26T11:05:43;100485.91;;;13.59;66.15
5753;BME280;2901;42.140;24.760;2022-12-26T11:10:37;100465.00;;;13.81;66.01
5753;BME280;2901;42.140;24.760;2022-12-26T11:13:06;100470.09;;;14.01;65.14
5753;BME280;2901;42.140;24.760;2022-12-26T11:15:50;100462.38;;;13.77;65.56
5753;BME280;2901;42.140;24.760;2022-12-26T11:18:27;100473.69;;;13.77;65.82
5753;BME280;2901;42.140;24.760;2022-12-26T11:21:10;100463.22;;;13.88;66.78
5753;BME280;2901;42.140;24.760;2022-12-26T11:23:36;100469.22;;;14.03;66.05
5753;BME280;2901;42.140;24.760;2022-12-26T11:26:01;100454.41;;;14.19;65.28
5753;BME280;2901;42.140;24.760;2022-12-26T11:28:35;100453.47;;;14.23;64.80
5753;BME280;2901;42.140;24.760;2022-12-26T11:31:04;100451.78;;;14.19;64.66
5753;BME280;2901;42.140;24.760;2022-12-26T11:33:44;100449.09;;;14.36;64.73
5753;BME280;2901;42.140;24.760;2022-12-26T11:36:21;100448.16;;;14.47;64.17
5753;BME280;2901;42.140;24.760;2022-12-26T11:39:02;100442.00;;;14.58;64.04
5753;BME280;2901;42.140;24.760;2022-12-26T11:41:34;100440.19;;;14.66;63.77
5753;BME280;2901;42.140;24.760;2022-12-26T11:46:41;100440.41;;;14.38;64.43
5753;BME280;2901;42.140;24.760;2022-12-26T11:49:17;100445.59;;;14.41;64.71
5753;BME280;2901;42.140;24.760;2022-12-26T11:51:46;100446.34;;;14.55;63.61
5753;BME280;2901;42.140;24.760;2022-12-26T11:54:32;100445.53;;;14.50;63.82
5753;BME280;2901;42.140;24.760;2022-12-26T11:59:31;100435.00;;;14.64;63.99
5753;BME280;2901;42.140;24.760;2022-12-26T12:02:22;100434.94;;;14.69;63.61
5753;BME280;2901;42.140;24.760;2022-12-26T12:04:50;100433.25;;;14.65;63.85
5753;BME280;2901;42.140;24.760;2022-12-26T12:10:20;100426.22;;;14.73;62.98
5753;BME280;2901;42.140;24.760;2022-12-26T12:13:20;100427.84;;;14.86;62.65
5753;BME280;2901;42.140;24.760;2022-12-26T12:21:43;100418.41;;;14.74;62.79
5753;BME280;2901;42.140;24.760;2022-12-26T12:41:12;100417.53;;;14.74;64.31
5753;BME280;2901;42.140;24.760;2022-12-26T12:46:42;100417.50;;;14.77;63.18
5753;BME280;2901;42.140;24.760;2022-12-26T12:51:53;100421.84;;;14.76;63.49
5753;BME280;2901;42.140;24.760;2022-12-26T12:57:08;100415.72;;;14.85;63.19
5753;BME280;2901;42.140;24.760;2022-12-26T12:59:50;100408.81;;;14.76;63.38
5753;BME280;2901;42.140;24.760;2022-12-26T13:07:47;100423.84;;;14.44;64.35
5753;BME280;2901;42.140;24.760;2022-12-26T13:10:22;100419.59;;;14.26;64.89
5753;BME280;2901;42.140;24.760;2022-12-26T13:12:50;100419.56;;;14.32;65.56
5753;BME280;2901;42.140;24.760;2022-12-26T13:18:04;100409.09;;;14.44;64.44
5753;BME280;2901;42.140;24.760;2022-12-26T13:26:37;100403.06;;;14.33;64.64
5753;BME280;2901;42.140;24.760;2022-12-26T13:29:15;100402.19;;;14.36;64.77
5753;BME280;2901;42.140;24.760;2022-12-26T13:31:43;100405.63;;;14.41;65.33
5753;BME280;2901;42.140;24.760;2022-12-26T13:34:19;100395.22;;;14.39;64.18
5753;BME280;2901;42.140;24.760;2022-12-26T13:41:36;100408.25;;;14.41;64.80
5753;BME280;2901;42.140;24.760;2022-12-26T13:49:35;100408.47;;;14.06;65.71
5753;BME280;2901;42.140;24.760;2022-12-26T14:00:09;100413.84;;;13.67;67.34
5753;BME280;2901;42.140;24.760;2022-12-26T14:05:23;100419.09;;;13.58;68.14
5753;BME280;2901;42.140;24.760;2022-12-26T14:07:59;100407.00;;;13.44;68.57
5753;BME280;2901;42.140;24.760;2022-12-26T14:10:47;100422.66;;;13.40;69.33
5753;BME280;2901;42.140;24.760;2022-12-26T14:13:35;100419.19;;;13.29;69.72
5753;BME280;2901;42.140;24.760;2022-12-26T14:16:15;100424.44;;;13.17;70.50
5753;BME280;2901;42.140;24.760;2022-12-26T14:24:22;100418.41;;;12.68;72.88
5753;BME280;2901;42.140;24.760;2022-12-26T14:29:46;100417.50;;;12.40;74.98
5753;BME280;2901;42.140;24.760;2022-12-26T14:38:29;100428.72;;;12.16;75.61
5753;BME280;2901;42.140;24.760;2022-12-26T14:43:36;100430.41;;;11.98;76.89
5753;BME280;2901;42.140;24.760;2022-12-26T14:46:09;100433.84;;;11.89;77.00
5753;BME280;2901;42.140;24.760;2022-12-26T14:48:53;100448.50;;;11.75;77.78
5753;BME280;2901;42.140;24.760;2022-12-26T14:53:45;100452.72;;;11.55;78.89
5753;BME280;2901;42.140;24.760;2022-12-26T14:56:33;100446.56;;;11.40;79.69
5753;BME280;2901;42.140;24.760;2022-12-26T15:05:16;100447.31;;;11.15;82.69
5753;BME280;2901;42.140;24.760;2022-12-26T15:10:58;100448.09;;;11.02;83.60
5753;BME280;2901;42.140;24.760;2022-12-26T15:30:22;100447.03;;;10.76;85.82
5753;BME280;2901;42.140;24.760;2022-12-26T15:33:08;100440.94;;;10.69;85.32
5753;BME280;2901;42.140;24.760;2022-12-26T15:35:48;100452.06;;;10.64;86.41
5753;BME280;2901;42.140;24.760;2022-12-26T15:38:27;100450.31;;;10.57;86.38
5753;BME280;2901;42.140;24.760;2022-12-26T15:41:21;100444.25;;;10.53;87.02
5753;BME280;2901;42.140;24.760;2022-12-26T15:52:14;100452.72;;;10.37;87.72
5753;BME280;2901;42.140;24.760;2022-12-26T16:00:46;100457.72;;;10.22;89.29
5753;BME280;2901;42.140;24.760;2022-12-26T16:09:10;100454.97;;;10.08;90.28
5753;BME280;2901;42.140;24.760;2022-12-26T16:11:57;100454.03;;;10.02;90.68
5753;BME280;2901;42.140;24.760;2022-12-26T16:14:34;100450.53;;;9.97;90.58
5753;BME280;2901;42.140;24.760;2022-12-26T16:17:20;100442.69;;;9.89;90.00
5753;BME280;2901;42.140;24.760;2022-12-26T16:19:48;100444.38;;;9.88;90.79
5753;BME280;2901;42.140;24.760;2022-12-26T16:22:35;100441.78;;;9.85;91.11
5753;BME280;2901;42.140;24.760;2022-12-26T16:25:24;100449.50;;;9.81;91.15
5753;BME280;2901;42.140;24.760;2022-12-26T16:27:53;100442.53;;;9.78;91.55
5753;BME280;2901;42.140;24.760;2022-12-26T16:30:25;100452.84;;;9.74;91.46
5753;BME280;2901;42.140;24.760;2022-12-26T16:32:51;100454.53;;;9.70;91.69
5753;BME280;2901;42.140;24.760;2022-12-26T16:37:46;100441.44;;;9.58;92.27
5753;BME280;2901;42.140;24.760;2022-12-26T16:45:43;100458.59;;;9.50;93.16
5753;BME280;2901;42.140;24.760;2022-12-26T16:48:15;100459.38;;;9.46;93.28
5753;BME280;2901;42.140;24.760;2022-12-26T16:50:50;100460.22;;;9.44;93.77
5753;BME280;2901;42.140;24.760;2022-12-26T16:53:18;100456.69;;;9.38;93.94
5753;BME280;2901;42.140;24.760;2022-12-26T16:55:49;100459.22;;;9.35;94.36
5753;BME280;2901;42.140;24.760;2022-12-26T16:58:28;100465.22;;;9.31;94.41
5753;BME280;2901;42.140;24.760;2022-12-26T17:01:12;100462.53;;;9.25;94.13
5753;BME280;2901;42.140;24.760;2022-12-26T17:06:21;100470.19;;;9.18;94.84
5753;BME280;2901;42.140;24.760;2022-12-26T17:08:49;100460.69;;;9.15;94.77
5753;BME280;2901;42.140;24.760;2022-12-26T17:11:15;100458.91;;;9.13;94.73
5753;BME280;2901;42.140;24.760;2022-12-26T17:13:48;100459.69;;;9.07;94.94
5753;BME280;2901;42.140;24.760;2022-12-26T17:16:15;100465.59;;;9.00;94.67
5753;BME280;2901;42.140;24.760;2022-12-26T17:18:51;100468.06;;;8.93;95.52
5753;BME280;2901;42.140;24.760;2022-12-26T17:21:31;100461.94;;;8.86;96.67
5753;BME280;2901;42.140;24.760;2022-12-26T17:24:21;100460.19;;;8.82;96.87
5753;BME280;2901;42.140;24.760;2022-12-26T17:27:06;100467.00;;;8.80;97.36